Langport, United Kingdom
Current Conditions -  °F | °C
As of 5:50 AM on Monday 26 Jan 2015 (Local Time) from EGDY Reporting Station
Light Rain Light Rain  
Wind Chill: 45°   Ceiling: 1600
Heat Index: 48°   Visibility: 6mi
Dew Point: 46°   Wind: 7mph
Humidity: 93%   Direction: 230°SW
Pressure: 30.21"   Gusts: NA
Location:  51.04°N, 2.83°W
Report Text: EGDY 260550Z 23006KT 9999 -RADZ SCT010 BKN016 09/08 Q1023 GRN
Loading
Personal Weather Stations






























Interactive Weather Map New forecast layout! Learn more

10-Day Weather Forecast

Advertisements
Track Severe Weather on mobile